Time;durP1;ratioP1;P1;durP2;ratioP2;P2;SDS_P1;SDS_P2;PMS_P1;PMS_P2;Temp;Humidity;BMP_temperature;BMP_pressure;BME280_temperature;BME280_humidity;BME280_pressure;Samples;Min_cycle;Max_cycle;Signal;HPM_P1;HPM_P2
2022/11/14 00:00:13;;;;;;;36.45;21.58;;;6.70;99.90;;;;;;6140857;22;20034;-59
2022/11/14 00:02:40;;;;;;;37.50;20.63;;;6.70;99.90;;;;;;6140180;23;20025;-59
2022/11/14 00:05:07;;;;;;;31.55;18.30;;;6.70;99.90;;;;;;6139581;22;20021;-59
2022/11/14 00:07:33;;;;;;;31.60;18.80;;;6.70;99.90;;;;;;6141083;22;20025;-60
2022/11/14 00:09:59;;;;;;;32.95;20.25;;;6.70;99.90;;;;;;6140365;22;20041;-59
2022/11/14 00:12:25;;;;;;;33.10;20.65;;;6.80;99.90;;;;;;6140902;22;20052;-59
2022/11/14 00:14:51;;;;;;;37.40;20.67;;;6.70;99.90;;;;;;6140877;22;20018;-60
2022/11/14 00:17:17;;;;;;;29.48;18.45;;;6.80;99.90;;;;;;6140849;22;20344;-60
2022/11/14 00:19:45;;;;;;;33.13;19.77;;;6.70;99.90;;;;;;6140123;22;20117;-61
2022/11/14 00:22:11;;;;;;;35.50;21.02;;;6.70;99.90;;;;;;6190677;22;20104;-60
2022/11/14 00:24:36;;;;;;;37.25;21.50;;;6.70;99.90;;;;;;6140457;22;20061;-59
2022/11/14 00:27:02;;;;;;;32.47;20.30;;;6.80;99.90;;;;;;6247524;22;20108;-59
2022/11/14 00:29:28;;;;;;;37.75;21.40;;;6.80;99.90;;;;;;6140111;22;20397;-59
2022/11/14 00:31:53;;;;;;;35.90;21.65;;;6.80;99.90;;;;;;6139323;22;20052;-59
2022/11/14 00:34:19;;;;;;;38.78;22.52;;;6.80;99.90;;;;;;6140207;22;20022;-59
2022/11/14 00:36:44;;;;;;;45.15;25.70;;;6.80;99.90;;;;;;6140169;22;20029;-59
2022/11/14 00:39:14;;;;;;;40.25;24.45;;;6.80;99.90;;;;;;6140096;22;20073;-60
2022/11/14 00:41:41;;;;;;;45.75;25.33;;;6.80;99.90;;;;;;6140487;23;20039;-59
2022/11/14 00:44:07;;;;;;;42.30;23.77;;;6.80;99.90;;;;;;6140234;23;20104;-59
2022/11/14 00:46:34;;;;;;;48.97;27.08;;;7.20;99.90;;;;;;6140304;22;20105;-59
2022/11/14 00:49:00;;;;;;;42.55;25.90;;;6.80;99.90;;;;;;6139657;22;20026;-58
2022/11/14 00:51:26;;;;;;;42.58;25.63;;;6.80;99.90;;;;;;6139717;22;20026;-59
2022/11/14 00:53:51;;;;;;;43.88;25.60;;;6.80;99.90;;;;;;6255527;22;20034;-59
2022/11/14 00:56:17;;;;;;;41.42;25.65;;;6.80;99.90;;;;;;6139063;22;20112;-58
2022/11/14 00:58:45;;;;;;;50.17;28.48;;;6.80;99.90;;;;;;6139155;22;20021;-59
2022/11/14 01:01:10;;;;;;;45.10;27.27;;;6.80;99.90;;;;;;6190700;22;20028;-59
2022/11/14 01:03:36;;;;;;;43.20;26.88;;;6.80;99.90;;;;;;6242761;22;20017;-59
2022/11/14 01:06:07;;;;;;;54.03;27.30;;;6.80;99.90;;;;;;6138763;22;20030;-59
2022/11/14 01:08:33;;;;;;;43.13;26.10;;;6.80;99.90;;;;;;6140213;22;20557;-59
2022/11/14 01:10:59;;;;;;;41.13;24.80;;;6.70;99.90;;;;;;6140875;22;20060;-59
2022/11/14 01:13:26;;;;;;;40.33;24.90;;;6.70;99.90;;;;;;6141936;22;20021;-59
2022/11/14 01:15:53;;;;;;;36.53;23.67;;;7.20;99.90;;;;;;6141123;22;20026;-59
2022/11/14 01:18:20;;;;;;;44.67;25.83;;;6.90;99.90;;;;;;6141781;22;20459;-59
2022/11/14 01:20:47;;;;;;;49.83;28.45;;;6.70;99.90;;;;;;6141537;23;20351;-59
2022/11/14 01:23:15;;;;;;;45.75;27.48;;;6.70;99.90;;;;;;6141700;22;20036;-59
2022/11/14 01:25:44;;;;;;;52.30;28.50;;;6.70;99.90;;;;;;6152959;22;20032;-59
2022/11/14 01:28:16;;;;;;;49.17;27.83;;;6.60;99.90;;;;;;6141631;23;20516;-59
2022/11/14 01:30:46;;;;;;;48.13;29.10;;;7.10;99.90;;;;;;6140747;22;20036;-59
2022/11/14 01:33:11;;;;;;;49.40;28.50;;;6.80;99.90;;;;;;6152000;22;20456;-59
2022/11/14 01:35:37;;;;;;;57.15;31.83;;;6.60;99.90;;;;;;6141302;22;20049;-59
2022/11/14 01:38:04;;;;;;;48.33;28.17;;;6.90;99.90;;;;;;6140745;22;20036;-60
2022/11/14 01:40:31;;;;;;;46.33;28.80;;;6.60;99.90;;;;;;6141758;22;20087;-60
2022/11/14 01:43:15;;;;;;;49.65;28.50;;;6.60;99.90;;;;;;6141162;22;20436;-59
2022/11/14 01:48:21;;;;;;;48.05;27.25;;;6.60;99.90;;;;;;6141226;23;20837;-59
2022/11/14 01:50:53;;;;;;;44.83;27.52;;;6.60;99.90;;;;;;6141250;22;20620;-58
2022/11/14 01:53:18;;;;;;;52.83;28.15;;;6.60;99.90;;;;;;6141800;22;20030;-59
2022/11/14 01:55:44;;;;;;;47.60;27.48;;;6.60;99.90;;;;;;6140993;22;20094;-59
2022/11/14 01:58:10;;;;;;;46.58;26.50;;;6.50;99.90;;;;;;6192758;22;20037;-59
2022/11/14 02:00:36;;;;;;;49.47;27.33;;;6.80;99.90;;;;;;6141345;22;20025;-59
2022/11/14 02:03:02;;;;;;;49.65;27.27;;;6.60;99.90;;;;;;6140892;22;20459;-59
2022/11/14 02:05:29;;;;;;;45.67;28.00;;;6.60;99.90;;;;;;6244272;22;20332;-59
2022/11/14 02:07:56;;;;;;;54.70;28.98;;;6.60;99.90;;;;;;6140929;22;20026;-59
2022/11/14 02:10:21;;;;;;;53.17;30.42;;;6.60;99.90;;;;;;6141002;22;20083;-59
2022/11/14 02:12:48;;;;;;;51.72;29.35;;;6.60;99.90;;;;;;6140938;22;20025;-59
2022/11/14 02:15:14;;;;;;;49.92;28.85;;;6.60;99.90;;;;;;6243933;22;20384;-59
2022/11/14 02:20:10;;;;;;;46.65;26.42;;;6.60;99.90;;;;;;6191100;22;20026;-59
2022/11/14 02:22:44;;;;;;;50.20;27.15;;;6.60;99.90;;;;;;6141125;22;20060;-59
2022/11/14 02:25:13;;;;;;;53.63;27.35;;;6.60;99.90;;;;;;6243701;22;20356;-59
2022/11/14 02:27:40;;;;;;;48.00;27.95;;;7.80;99.90;;;;;;6264214;22;20058;-59
2022/11/14 02:30:15;;;;;;;50.60;27.55;;;6.60;99.90;;;;;;6143668;22;20021;-59
2022/11/14 02:35:10;;;;;;;48.38;26.75;;;6.60;99.90;;;;;;6191689;22;20053;-60
2022/11/14 02:37:36;;;;;;;46.42;27.88;;;6.60;99.90;;;;;;6141288;22;20029;-59
2022/11/14 02:40:02;;;;;;;51.85;28.80;;;6.60;99.90;;;;;;6140917;22;20406;-59
2022/11/14 02:42:28;;;;;;;47.88;27.80;;;6.60;99.90;;;;;;6264593;22;20103;-60
2022/11/14 02:44:54;;;;;;;47.33;29.50;;;6.70;99.90;;;;;;6153684;22;20316;-59
2022/11/14 02:47:20;;;;;;;45.55;26.50;;;6.70;99.90;;;;;;6140767;22;20022;-59
2022/11/14 02:49:45;;;;;;;46.97;28.85;;;6.70;99.90;;;;;;6140344;22;20090;-58
2022/11/14 02:52:11;;;;;;;47.10;26.00;;;6.70;99.90;;;;;;6140835;23;20030;-59
2022/11/14 02:54:36;;;;;;;50.90;28.38;;;6.70;99.90;;;;;;6141428;22;20103;-60
2022/11/14 02:57:02;;;;;;;44.60;26.55;;;6.70;99.90;;;;;;6089659;22;1185621;-59
2022/11/14 02:59:28;;;;;;;53.15;27.92;;;6.70;99.90;;;;;;6141364;22;20025;-59
2022/11/14 03:01:53;;;;;;;47.05;28.45;;;6.70;99.90;;;;;;6140563;22;20025;-59
2022/11/14 03:04:19;;;;;;;49.00;26.10;;;6.70;99.90;;;;;;6140822;22;20028;-60
2022/11/14 03:06:45;;;;;;;47.38;27.52;;;6.70;99.90;;;;;;6140592;22;20040;-59
2022/11/14 03:09:10;;;;;;;44.45;26.25;;;6.70;99.90;;;;;;6141268;22;20070;-59
2022/11/14 03:11:37;;;;;;;48.40;29.17;;;6.70;99.90;;;;;;6141345;22;20029;-59
2022/11/14 03:14:03;;;;;;;41.90;25.08;;;6.70;99.90;;;;;;6140961;22;20029;-59
2022/11/14 03:16:29;;;;;;;48.83;28.35;;;6.70;99.90;;;;;;6141139;22;20040;-60
2022/11/14 03:18:55;;;;;;;49.05;28.80;;;6.70;99.90;;;;;;6140519;22;20025;-59
2022/11/14 03:21:22;;;;;;;48.88;29.52;;;6.70;99.90;;;;;;6140931;22;20029;-59
2022/11/14 03:23:48;;;;;;;45.05;26.55;;;6.70;99.90;;;;;;6141009;22;20014;-59
2022/11/14 03:26:14;;;;;;;46.72;27.00;;;6.70;99.90;;;;;;6140998;22;20036;-59
2022/11/14 03:28:45;;;;;;;47.55;29.05;;;6.70;99.90;;;;;;6140939;22;20460;-60
2022/11/14 03:31:12;;;;;;;43.38;27.30;;;6.70;99.90;;;;;;6243039;22;20078;-60
2022/11/14 03:33:38;;;;;;;46.25;27.50;;;6.70;99.90;;;;;;6140803;22;20421;-59
2022/11/14 03:36:04;;;;;;;49.33;27.33;;;6.70;99.90;;;;;;6140547;23;20459;-60
2022/11/14 03:38:30;;;;;;;49.33;26.70;;;6.70;99.90;;;;;;6141127;22;20523;-60
2022/11/14 03:40:58;;;;;;;48.47;27.70;;;6.70;99.90;;;;;;6140792;22;20022;-60
2022/11/14 03:43:24;;;;;;;50.88;29.83;;;6.70;99.90;;;;;;6141553;22;20025;-59
2022/11/14 03:45:50;;;;;;;49.95;28.23;;;6.80;99.90;;;;;;6140501;22;20057;-60
2022/11/14 03:48:16;;;;;;;48.33;30.20;;;6.80;99.90;;;;;;6140717;22;20045;-59
2022/11/14 03:50:45;;;;;;;48.40;29.00;;;6.70;99.90;;;;;;6140411;23;20588;-60
2022/11/14 03:53:10;;;;;;;53.83;31.58;;;7.60;99.90;;;;;;6190974;22;20055;-59
2022/11/14 03:55:37;;;;;;;50.17;29.27;;;7.00;99.90;;;;;;6140971;22;20405;-59
2022/11/14 03:58:03;;;;;;;48.08;28.65;;;6.80;99.90;;;;;;6217567;22;20115;-59
2022/11/14 04:00:29;;;;;;;51.63;29.77;;;6.70;99.90;;;;;;6242916;22;20060;-59
2022/11/14 04:02:55;;;;;;;48.90;30.23;;;6.80;99.90;;;;;;6139866;22;20469;-60
2022/11/14 04:05:22;;;;;;;47.53;29.02;;;6.80;99.90;;;;;;6140844;22;20036;-60
2022/11/14 04:07:47;;;;;;;53.40;31.10;;;6.80;99.90;;;;;;6242524;22;20114;-59
2022/11/14 04:10:13;;;;;;;43.92;27.40;;;6.80;99.90;;;;;;6140481;22;20041;-59
2022/11/14 04:12:39;;;;;;;48.33;28.23;;;6.70;99.90;;;;;;6140831;23;20028;-59
2022/11/14 04:15:05;;;;;;;45.65;27.35;;;6.70;99.90;;;;;;6140202;22;20029;-59
2022/11/14 04:17:30;;;;;;;41.35;25.98;;;6.70;99.90;;;;;;6140579;22;20052;-59
2022/11/14 04:19:56;;;;;;;44.30;27.73;;;6.70;99.90;;;;;;6140089;23;20057;-59
2022/11/14 04:22:22;;;;;;;39.97;23.85;;;6.70;99.90;;;;;;6140837;22;20045;-59
2022/11/14 04:24:47;;;;;;;42.85;25.95;;;6.80;99.90;;;;;;6140251;22;20033;-59
2022/11/14 04:27:13;;;;;;;44.85;25.55;;;6.70;99.90;;;;;;6140557;22;20338;-59
2022/11/14 04:29:39;;;;;;;40.80;24.73;;;6.70;99.90;;;;;;6140322;22;20097;-60
2022/11/14 04:32:04;;;;;;;44.70;26.35;;;6.70;99.90;;;;;;6139479;22;20466;-59
2022/11/14 04:34:30;;;;;;;44.65;25.35;;;6.70;99.90;;;;;;6242568;22;20037;-59
2022/11/14 04:36:56;;;;;;;36.92;23.23;;;6.70;99.90;;;;;;6139894;22;20036;-60
2022/11/14 04:39:21;;;;;;;42.35;22.58;;;7.00;99.90;;;;;;6140484;22;20310;-59
2022/11/14 04:41:47;;;;;;;42.60;25.15;;;6.70;99.90;;;;;;6140130;22;20033;-60
2022/11/14 04:44:13;;;;;;;41.25;24.00;;;6.70;99.90;;;;;;6140938;22;20021;-59
2022/11/14 04:46:38;;;;;;;40.17;24.50;;;6.70;99.90;;;;;;6141712;22;20033;-59
2022/11/14 04:49:04;;;;;;;42.70;25.67;;;6.70;99.90;;;;;;6141063;22;20030;-59
2022/11/14 04:51:30;;;;;;;42.45;25.60;;;7.20;99.90;;;;;;6140822;22;20115;-59
2022/11/14 04:53:55;;;;;;;40.97;25.50;;;6.70;99.90;;;;;;6141403;22;20447;-59
2022/11/14 04:56:22;;;;;;;40.25;24.17;;;6.70;99.90;;;;;;6265337;22;20031;-59
2022/11/14 04:58:48;;;;;;;43.90;26.48;;;6.60;99.90;;;;;;6261994;22;20034;-59
2022/11/14 05:01:14;;;;;;;40.85;24.60;;;6.60;99.90;;;;;;6243616;22;20074;-59
2022/11/14 05:03:40;;;;;;;38.05;25.02;;;6.60;99.90;;;;;;6141385;22;20024;-59
2022/11/14 05:06:06;;;;;;;44.28;26.73;;;6.70;99.90;;;;;;6218384;22;20029;-59
2022/11/14 05:08:34;;;;;;;42.33;25.73;;;6.60;99.90;;;;;;6244767;22;20100;-59
2022/11/14 05:11:00;;;;;;;41.47;23.75;;;6.50;99.90;;;;;;6141131;22;20109;-60
2022/11/14 05:13:26;;;;;;;38.00;24.13;;;6.60;99.90;;;;;;6141727;22;20052;-59
2022/11/14 05:15:51;;;;;;;40.70;26.67;;;6.50;99.90;;;;;;6141538;22;20017;-59
2022/11/14 05:18:17;;;;;;;43.92;26.05;;;6.50;99.90;;;;;;6141578;22;20034;-59
2022/11/14 05:20:46;;;;;;;42.85;26.17;;;6.50;99.90;;;;;;6141523;22;20352;-59
2022/11/14 05:23:19;;;;;;;44.35;25.30;;;6.50;99.90;;;;;;6191389;22;20029;-59
2022/11/14 05:25:46;;;;;;;42.38;25.65;;;6.50;99.90;;;;;;6141671;22;20029;-59
2022/11/14 05:28:11;;;;;;;47.60;25.90;;;6.50;99.90;;;;;;6141660;22;20056;-59
2022/11/14 05:30:37;;;;;;;43.85;25.15;;;6.50;99.90;;;;;;6141947;22;20030;-59
2022/11/14 05:33:03;;;;;;;47.58;25.88;;;6.40;99.90;;;;;;6140670;22;20036;-59
2022/11/14 05:35:28;;;;;;;49.08;26.10;;;6.40;99.90;;;;;;6141348;22;20447;-59
2022/11/14 05:37:54;;;;;;;42.58;25.48;;;6.40;99.90;;;;;;6141352;22;20048;-60
2022/11/14 05:40:20;;;;;;;41.20;24.02;;;6.80;99.90;;;;;;6141341;22;20052;-59
2022/11/14 05:42:45;;;;;;;41.38;24.73;;;6.40;99.90;;;;;;6141232;22;20033;-59
2022/11/14 05:45:11;;;;;;;38.08;23.83;;;6.40;99.90;;;;;;6142211;22;20452;-60
2022/11/14 05:47:37;;;;;;;50.05;25.98;;;6.40;99.90;;;;;;6115200;23;20125;-59
2022/11/14 05:50:03;;;;;;;41.72;25.60;;;6.70;99.90;;;;;;6138666;23;20049;-59
2022/11/14 05:52:30;;;;;;;45.40;26.33;;;6.40;99.90;;;;;;6140806;22;20449;-60
2022/11/14 05:54:56;;;;;;;48.40;26.45;;;6.70;99.90;;;;;;6140605;22;20059;-59
2022/11/14 05:57:21;;;;;;;49.13;28.10;;;6.30;99.90;;;;;;6140505;22;20021;-59
2022/11/14 05:59:47;;;;;;;44.17;24.92;;;6.30;99.90;;;;;;6141378;23;20037;-60
2022/11/14 06:02:13;;;;;;;46.45;26.85;;;6.30;99.90;;;;;;6243940;22;20100;-59
2022/11/14 06:04:38;;;;;;;46.95;26.52;;;6.30;99.90;;;;;;6141086;22;20030;-60
2022/11/14 06:07:04;;;;;;;48.70;27.00;;;6.30;99.90;;;;;;6140988;22;20116;-59
2022/11/14 06:09:30;;;;;;;50.05;26.08;;;6.20;99.90;;;;;;6140864;22;20056;-59
2022/11/14 06:11:55;;;;;;;44.10;26.08;;;6.20;99.90;;;;;;6139985;22;20029;-59
2022/11/14 06:14:21;;;;;;;47.25;26.30;;;6.50;99.90;;;;;;6140587;22;20049;-59
2022/11/14 06:16:47;;;;;;;47.33;25.02;;;6.40;99.90;;;;;;6139335;22;20033;-59
2022/11/14 06:19:12;;;;;;;46.40;25.70;;;6.20;99.90;;;;;;6262452;22;20401;-59
2022/11/14 06:21:38;;;;;;;43.97;26.33;;;6.10;99.90;;;;;;6167148;22;20125;-59
2022/11/14 06:24:04;;;;;;;46.50;26.48;;;6.20;99.90;;;;;;6139488;23;22313;-59
2022/11/14 06:26:30;;;;;;;45.85;25.92;;;6.20;99.90;;;;;;6139973;22;20125;-59
2022/11/14 06:28:57;;;;;;;44.75;26.13;;;6.10;99.90;;;;;;6140099;22;20013;-59
2022/11/14 06:31:24;;;;;;;48.42;27.38;;;6.10;99.90;;;;;;6140260;22;20040;-59
2022/11/14 06:33:50;;;;;;;44.15;26.00;;;6.10;99.90;;;;;;6139515;22;20049;-59
2022/11/14 06:36:16;;;;;;;50.42;26.50;;;6.10;99.90;;;;;;6139826;22;20543;-60
2022/11/14 06:38:45;;;;;;;41.53;23.45;;;6.10;99.90;;;;;;6241949;22;20478;-62
2022/11/14 06:41:21;;;;;;;49.22;25.67;;;6.00;99.90;;;;;;6190736;22;20360;-61
2022/11/14 06:43:49;;;;;;;58.00;28.30;;;6.00;99.90;;;;;;6139782;22;20029;-63
2022/11/14 06:46:18;;;;;;;47.42;25.83;;;6.00;99.90;;;;;;6242402;22;20030;-62
2022/11/14 06:48:44;;;;;;;48.10;27.40;;;6.40;99.90;;;;;;6263047;22;20122;-61
2022/11/14 06:51:11;;;;;;;50.00;27.00;;;6.00;99.90;;;;;;6128533;22;20032;-61
2022/11/14 06:53:38;;;;;;;47.40;25.27;;;6.00;99.90;;;;;;6140290;22;20022;-63
2022/11/14 06:56:04;;;;;;;49.25;26.85;;;6.20;99.90;;;;;;6215660;23;20029;-60
2022/11/14 06:58:35;;;;;;;53.17;27.83;;;6.00;99.90;;;;;;6139947;22;20480;-65
2022/11/14 07:01:05;;;;;;;49.97;27.70;;;6.00;99.90;;;;;;6139758;22;20029;-59
2022/11/14 07:03:32;;;;;;;49.65;27.27;;;6.00;99.90;;;;;;6141388;22;20021;-59
2022/11/14 07:05:58;;;;;;;48.50;27.15;;;6.00;99.90;;;;;;6251377;22;20085;-59
2022/11/14 07:08:24;;;;;;;44.58;24.90;;;6.20;99.90;;;;;;6242757;22;20478;-59
2022/11/14 07:10:50;;;;;;;46.88;24.55;;;5.90;99.90;;;;;;6138711;22;20021;-59
2022/11/14 07:13:15;;;;;;;48.60;26.63;;;6.00;99.90;;;;;;6139733;22;20052;-59
2022/11/14 07:15:44;;;;;;;48.58;27.13;;;6.00;99.90;;;;;;6093246;22;1088410;-59
2022/11/14 07:18:10;;;;;;;49.65;26.67;;;6.00;99.90;;;;;;6128474;22;20036;-59
2022/11/14 07:20:36;;;;;;;49.55;26.65;;;5.90;99.90;;;;;;6138371;22;20565;-59
2022/11/14 07:23:02;;;;;;;47.03;27.13;;;6.00;99.90;;;;;;6138152;22;20235;-60
2022/11/14 07:25:27;;;;;;;51.00;26.90;;;6.00;99.90;;;;;;6138571;22;20034;-59
2022/11/14 07:27:55;;;;;;;41.63;24.27;;;6.00;99.90;;;;;;6138881;22;20423;-59
2022/11/14 07:30:21;;;;;;;46.08;24.63;;;6.00;99.90;;;;;;6139869;22;20028;-59
2022/11/14 07:32:57;;;;;;;49.03;28.05;;;7.40;99.90;;;;;;6260997;22;20024;-59
2022/11/14 07:35:23;;;;;;;48.28;27.98;;;6.10;99.90;;;;;;6140856;22;20025;-59
2022/11/14 07:37:49;;;;;;;52.33;29.48;;;6.10;99.90;;;;;;6140168;22;20049;-59
2022/11/14 07:40:16;;;;;;;66.15;36.30;;;6.20;99.90;;;;;;6140471;22;20033;-59
2022/11/14 07:42:45;;;;;;;64.13;34.38;;;6.20;99.90;;;;;;6140639;23;20025;-59
2022/11/14 07:45:10;;;;;;;58.47;32.22;;;6.20;99.90;;;;;;6179567;22;20028;-59
2022/11/14 07:47:36;;;;;;;57.53;29.98;;;6.20;99.90;;;;;;6140834;22;20021;-60
2022/11/14 07:50:02;;;;;;;49.38;26.58;;;6.20;99.90;;;;;;6139795;22;20034;-59
2022/11/14 07:52:30;;;;;;;46.47;26.88;;;6.20;99.90;;;;;;6140665;22;20033;-59
2022/11/14 07:54:56;;;;;;;52.63;29.05;;;6.10;99.90;;;;;;6140392;22;20032;-59
2022/11/14 07:57:21;;;;;;;52.03;29.92;;;6.20;99.90;;;;;;6140559;22;20025;-59
2022/11/14 07:59:47;;;;;;;56.80;29.83;;;6.60;99.90;;;;;;6242745;22;20074;-59
2022/11/14 08:02:14;;;;;;;53.78;28.38;;;6.20;99.90;;;;;;6241918;22;20511;-59
2022/11/14 08:04:40;;;;;;;45.80;24.77;;;6.20;99.90;;;;;;6140494;22;20056;-59
2022/11/14 08:07:06;;;;;;;52.30;27.95;;;6.30;99.90;;;;;;6139739;22;20030;-59
2022/11/14 08:09:32;;;;;;;45.60;26.20;;;6.30;99.90;;;;;;6140585;22;20040;-59
2022/11/14 08:11:57;;;;;;;48.60;25.98;;;6.60;99.90;;;;;;6139939;22;20030;-59
2022/11/14 08:14:24;;;;;;;44.67;26.48;;;6.30;99.90;;;;;;6242939;22;20041;-60
2022/11/14 08:16:49;;;;;;;45.17;23.98;;;6.40;99.90;;;;;;6139337;22;20029;-60
2022/11/14 08:19:16;;;;;;;49.95;25.73;;;6.40;99.90;;;;;;6243827;22;20078;-59
2022/11/14 08:21:45;;;;;;;46.33;26.52;;;6.40;99.90;;;;;;6141617;22;20031;-59
2022/11/14 08:24:11;;;;;;;45.85;26.23;;;6.40;99.90;;;;;;6192489;22;20030;-59
2022/11/14 08:26:36;;;;;;;41.83;24.50;;;6.50;99.90;;;;;;6141116;22;20116;-59
2022/11/14 08:29:02;;;;;;;46.95;26.63;;;6.50;99.90;;;;;;6140632;23;20435;-59
2022/11/14 08:31:28;;;;;;;44.00;23.75;;;6.50;99.90;;;;;;6140723;22;20100;-59
2022/11/14 08:33:57;;;;;;;42.50;24.40;;;6.60;99.90;;;;;;6140583;22;20026;-59
2022/11/14 08:36:22;;;;;;;43.03;24.48;;;6.60;99.90;;;;;;6141207;23;20030;-60
2022/11/14 08:38:48;;;;;;;38.47;22.73;;;6.60;99.90;;;;;;6141243;22;20083;-59
2022/11/14 08:41:13;;;;;;;47.78;26.38;;;6.60;99.90;;;;;;6141632;22;20060;-59
2022/11/14 08:43:39;;;;;;;43.28;24.55;;;6.60;99.90;;;;;;6243699;22;20095;-59
2022/11/14 08:46:05;;;;;;;42.60;25.33;;;6.70;99.90;;;;;;6140909;22;20091;-59
2022/11/14 08:48:31;;;;;;;45.33;25.02;;;6.70;99.90;;;;;;6142052;22;20022;-59
2022/11/14 08:51:00;;;;;;;45.10;25.08;;;6.70;99.90;;;;;;6140123;22;20036;-59
2022/11/14 08:53:26;;;;;;;42.95;24.77;;;6.80;99.90;;;;;;6140819;22;20037;-59
2022/11/14 08:55:52;;;;;;;44.60;24.70;;;6.90;99.90;;;;;;6242838;22;20022;-59
2022/11/14 08:58:17;;;;;;;42.50;24.23;;;6.90;99.90;;;;;;6140297;22;20094;-60
2022/11/14 09:00:45;;;;;;;48.63;26.48;;;7.00;99.90;;;;;;6139953;22;20100;-60
2022/11/14 09:03:13;;;;;;;49.33;25.25;;;7.10;99.90;;;;;;6189125;22;20028;-64
2022/11/14 09:05:39;;;;;;;43.53;24.98;;;7.20;99.90;;;;;;6166312;22;20021;-60
2022/11/14 09:08:05;;;;;;;45.42;25.90;;;7.20;99.90;;;;;;6140004;22;20033;-60
2022/11/14 09:10:31;;;;;;;41.00;24.15;;;7.10;99.90;;;;;;6141007;22;20021;-60
2022/11/14 09:12:58;;;;;;;45.47;23.58;;;7.10;99.90;;;;;;6243486;22;20116;-59
2022/11/14 09:15:23;;;;;;;44.08;24.40;;;7.00;99.90;;;;;;6141429;22;20022;-59
2022/11/14 09:17:53;;;;;;;42.72;23.92;;;7.10;99.90;;;;;;6140727;22;20033;-59
2022/11/14 09:20:19;;;;;;;38.15;23.17;;;7.20;99.90;;;;;;6141232;22;20022;-59
2022/11/14 09:22:45;;;;;;;37.80;23.33;;;7.40;99.90;;;;;;6140560;22;20034;-59
2022/11/14 09:25:11;;;;;;;42.80;25.02;;;7.10;99.90;;;;;;6140737;22;20476;-59
2022/11/14 09:27:37;;;;;;;42.40;23.08;;;7.10;99.90;;;;;;6140081;22;20030;-59
2022/11/14 09:30:04;;;;;;;39.45;23.48;;;7.10;99.90;;;;;;6139314;22;20040;-59
2022/11/14 09:32:30;;;;;;;37.70;23.27;;;7.10;99.90;;;;;;6140166;22;20029;-59
2022/11/14 09:34:55;;;;;;;39.22;21.73;;;7.20;99.90;;;;;;6242229;22;20083;-59
2022/11/14 09:37:21;;;;;;;41.60;24.00;;;7.10;99.90;;;;;;6133323;23;20017;-59
2022/11/14 09:39:47;;;;;;;46.80;25.05;;;7.80;99.90;;;;;;6138047;22;20055;-59
2022/11/14 09:42:45;;;;;;;41.92;24.05;;;7.60;99.90;;;;;;6136924;22;20030;-59
2022/11/14 09:45:17;;;;;;;39.85;23.30;;;7.60;99.90;;;;;;6241068;22;20025;-59
2022/11/14 09:48:11;;;;;;;41.25;21.63;;;7.70;99.90;;;;;;6137508;22;20033;-59
2022/11/14 09:50:45;;;;;;;42.50;23.88;;;7.90;99.90;;;;;;6213904;22;20333;-59
2022/11/14 09:53:45;;;;;;;36.75;23.55;;;7.90;99.90;;;;;;6138196;23;20033;-59
2022/11/14 09:56:14;;;;;;;42.38;24.58;;;7.90;99.90;;;;;;6137494;23;20033;-59
2022/11/14 09:58:41;;;;;;;37.22;21.92;;;7.90;99.90;;;;;;6137477;22;20025;-59
2022/11/14 10:01:24;;;;;;;47.83;27.63;;;8.00;99.90;;;;;;6137165;22;20367;-59
2022/11/14 10:03:52;;;;;;;43.13;24.80;;;7.70;99.90;;;;;;6138221;22;20025;-59
2022/11/14 10:06:45;;;;;;;46.65;25.95;;;7.60;99.90;;;;;;6137810;22;20029;-59
2022/11/14 10:09:45;;;;;;;41.28;24.35;;;7.70;99.90;;;;;;6138382;23;20033;-59
2022/11/14 10:12:21;;;;;;;42.97;24.10;;;7.80;99.90;;;;;;6137683;23;20025;-59
2022/11/14 10:14:53;;;;;;;44.95;23.10;;;7.90;99.90;;;;;;6138544;22;20033;-59
2022/11/14 10:17:31;;;;;;;37.90;23.50;;;8.00;99.90;;;;;;6138585;22;20573;-59
2022/11/14 10:20:10;;;;;;;42.53;23.92;;;8.00;99.90;;;;;;6138415;22;20025;-59
2022/11/14 10:22:45;;;;;;;39.15;23.40;;;7.90;99.90;;;;;;6139228;22;20452;-59
2022/11/14 10:25:35;;;;;;;39.30;23.05;;;7.80;99.90;;;;;;6241672;22;20056;-59
2022/11/14 10:28:28;;;;;;;38.45;22.63;;;8.10;99.90;;;;;;6139353;22;20037;-60
2022/11/14 10:31:27;;;;;;;41.75;24.60;;;8.10;99.90;;;;;;6138320;22;20041;-60
2022/11/14 10:34:03;;;;;;;39.65;22.55;;;8.30;99.90;;;;;;6140266;22;20041;-59
2022/11/14 10:39:30;;;;;;;40.05;24.55;;;8.20;99.90;;;;;;6138891;23;20356;-62
2022/11/14 10:42:01;;;;;;;37.85;22.90;;;8.20;99.90;;;;;;6137050;23;20089;-59
2022/11/14 10:44:35;;;;;;;39.95;23.90;;;8.20;99.90;;;;;;6139146;22;20079;-59
2022/11/14 10:47:05;;;;;;;34.85;22.23;;;8.40;99.90;;;;;;6138018;22;20466;-60
2022/11/14 10:49:35;;;;;;;37.35;22.33;;;8.20;99.90;;;;;;6139118;23;20448;-59
2022/11/14 10:52:04;;;;;;;34.58;20.48;;;8.30;99.90;;;;;;6240945;22;20029;-60
2022/11/14 10:54:40;;;;;;;34.00;21.55;;;8.30;99.90;;;;;;6139364;22;20508;-59
2022/11/14 10:57:17;;;;;;;38.03;22.50;;;8.20;99.90;;;;;;6138226;22;20420;-60
2022/11/14 10:59:46;;;;;;;36.28;21.98;;;8.10;99.90;;;;;;6138623;22;20033;-59
2022/11/14 11:02:12;;;;;;;38.05;22.48;;;8.50;99.90;;;;;;6138603;22;20574;-60
2022/11/14 11:04:45;;;;;;;34.13;20.70;;;8.30;99.90;;;;;;6138928;22;20052;-60
2022/11/14 11:11:28;;;;;;;38.55;22.02;;;8.30;99.90;;;;;;6138598;23;20420;-60
2022/11/14 11:12:53;;;;;;;32.10;19.85;;;8.60;99.90;;;;;;6137214;22;20314;-59
2022/11/14 11:15:19;;;;;;;38.85;24.08;;;9.40;99.90;;;;;;6136580;22;20588;-60
2022/11/14 11:17:55;;;;;;;41.03;25.73;;;9.70;99.90;;;;;;6135849;23;20029;-59
2022/11/14 11:20:34;;;;;;;40.58;25.45;;;10.10;99.90;;;;;;6136741;23;20463;-60
2022/11/14 11:23:09;;;;;;;42.67;27.38;;;10.60;99.90;;;;;;6137806;22;20413;-59
2022/11/14 11:25:36;;;;;;;44.13;28.25;;;10.20;99.90;;;;;;6137437;22;20036;-59
2022/11/14 11:28:10;;;;;;;47.10;28.27;;;10.30;99.90;;;;;;6134189;22;20064;-59
2022/11/14 11:30:36;;;;;;;;;;;10.00;99.90;;;;;;6135041;22;20025;-59
2022/11/14 11:33:15;;;;;;;37.30;23.25;;;10.00;99.90;;;;;;6089193;22;1108699;-59
2022/11/14 11:35:45;;;;;;;44.47;25.40;;;10.00;99.90;;;;;;6136905;23;20036;-59
2022/11/14 11:38:11;;;;;;;41.13;25.85;;;9.70;99.90;;;;;;6137330;22;20041;-60
2022/11/14 11:40:39;;;;;;;42.65;26.55;;;9.70;99.90;;;;;;6260945;22;20346;-59
2022/11/14 11:43:25;;;;;;;47.25;29.42;;;9.60;99.90;;;;;;6141595;22;20399;-60
2022/11/14 11:45:53;;;;;;;47.50;28.05;;;9.90;99.90;;;;;;6138572;22;20094;-60
2022/11/14 11:48:21;;;;;;;45.33;29.60;;;10.00;99.90;;;;;;6243386;22;20031;-60
2022/11/14 11:50:47;;;;;;;45.90;27.83;;;10.00;99.90;;;;;;6239084;22;20439;-59
2022/11/14 11:53:41;;;;;;;44.38;26.33;;;10.20;99.90;;;;;;6138015;22;20069;-60
2022/11/14 11:56:26;;;;;;;33.30;22.08;;;10.30;99.90;;;;;;6188206;22;20529;-59
2022/11/14 11:59:04;;;;;;;38.42;24.17;;;10.40;99.90;;;;;;6136998;22;20026;-59
2022/11/14 12:01:30;;;;;;;41.45;22.90;;;10.30;99.90;;;;;;6136569;22;20026;-59
2022/11/14 12:03:55;;;;;;;36.53;22.10;;;10.30;99.90;;;;;;6129816;22;20025;-60
2022/11/14 12:06:24;;;;;;;36.60;23.67;;;10.20;99.90;;;;;;6236712;22;20034;-60
2022/11/14 12:09:17;;;;;;;40.35;25.80;;;10.30;99.90;;;;;;6134932;22;20029;-60
2022/11/14 12:14:27;;;;;;;43.38;27.67;;;10.50;99.90;;;;;;6185847;22;20051;-59
2022/11/14 12:16:55;;;;;;;43.33;26.00;;;10.50;99.90;;;;;;6237726;22;20021;-60
2022/11/14 12:19:45;;;;;;;41.97;26.50;;;10.60;99.90;;;;;;6135602;22;20326;-61
2022/11/14 12:22:27;;;;;;;35.83;22.85;;;10.70;99.90;;;;;;6136084;23;20029;-63
2022/11/14 12:25:24;;;;;;;32.08;20.77;;;10.70;99.90;;;;;;6131990;22;20133;-60
2022/11/14 12:28:03;;;;;;;34.33;19.52;;;10.70;99.90;;;;;;6134652;22;20401;-63
2022/11/14 12:30:31;;;;;;;28.63;19.70;;;10.50;99.90;;;;;;6136184;22;20114;-61
2022/11/14 12:33:06;;;;;;;29.17;19.80;;;10.40;99.90;;;;;;6135996;22;20022;-60
2022/11/14 12:35:35;;;;;;;30.48;19.15;;;10.60;99.90;;;;;;6135609;22;20029;-60
2022/11/14 12:38:04;;;;;;;29.17;18.15;;;10.60;99.90;;;;;;6135431;22;20021;-60
2022/11/14 12:40:33;;;;;;;29.65;20.23;;;10.50;99.90;;;;;;6136084;22;20457;-60
2022/11/14 12:43:00;;;;;;;32.58;20.35;;;10.40;99.90;;;;;;6135017;22;20058;-59
2022/11/14 12:45:45;;;;;;;28.40;18.25;;;9.40;99.90;;;;;;6135917;23;20032;-60
2022/11/14 12:48:26;;;;;;;;;;;10.60;99.90;;;;;;6136254;23;20021;-60
2022/11/14 12:50:56;;;;;;;26.90;17.48;;;10.60;99.90;;;;;;6136064;23;20327;-59
2022/11/14 12:53:36;;;;;;;28.15;18.08;;;10.40;99.90;;;;;;6136681;22;20106;-60
2022/11/14 12:56:20;;;;;;;29.10;18.80;;;10.70;99.90;;;;;;6134855;22;20033;-60
2022/11/14 12:59:13;;;;;;;26.92;17.58;;;10.70;99.90;;;;;;6136105;22;20022;-60